createdAt,value
2019-01-21T00:00:50.154Z,99274.09
2019-01-21T00:03:19.547Z,99274.45
2019-01-21T00:05:48.871Z,99271.51
2019-01-21T00:08:17.994Z,99272.69
2019-01-21T00:10:47.163Z,99264.11
2019-01-21T00:13:16.270Z,99269.34
2019-01-21T00:15:45.628Z,99276.37
2019-01-21T00:18:14.781Z,99277.57
2019-01-21T00:20:43.929Z,99279.41
2019-01-21T00:23:13.037Z,99278.91
2019-01-21T00:25:42.198Z,99275.46
2019-01-21T00:28:11.295Z,99275.90
2019-01-21T00:30:40.428Z,99277.25
2019-01-21T00:33:09.688Z,99277.17
2019-01-21T00:35:38.921Z,99275.09
2019-01-21T00:38:08.034Z,99274.70
2019-01-21T00:40:37.173Z,99275.94
2019-01-21T00:43:06.270Z,99273.52
2019-01-21T00:45:35.421Z,99271.27
2019-01-21T00:48:04.639Z,99271.63
2019-01-21T00:50:33.789Z,99269.19
2019-01-21T00:53:02.888Z,99267.09
2019-01-21T00:55:32.048Z,99266.09
2019-01-21T00:58:01.146Z,99269.52
2019-01-21T01:00:30.274Z,99263.06
2019-01-21T01:02:59.473Z,99263.94
2019-01-21T01:05:28.642Z,99261.02
2019-01-21T01:07:57.743Z,99260.56
2019-01-21T01:10:26.902Z,99266.92
2019-01-21T01:12:55.947Z,99262.63
2019-01-21T01:15:25.096Z,99265.28
2019-01-21T01:17:54.776Z,99271.38
2019-01-21T01:20:23.921Z,99263.61
2019-01-21T01:22:53.036Z,99271.88
2019-01-21T01:25:22.125Z,99267.09
2019-01-21T01:27:51.212Z,99266.27
2019-01-21T01:30:20.384Z,99270.51
2019-01-21T01:32:49.473Z,99277.13
2019-01-21T01:35:18.625Z,99284.09
2019-01-21T01:37:47.732Z,99282.71
2019-01-21T01:40:18.671Z,99284.09
2019-01-21T01:42:48.246Z,99285.00
2019-01-21T01:45:21.284Z,99281.53
2019-01-21T01:48:00.349Z,99281.19
2019-01-21T01:50:29.763Z,99286.02
2019-01-21T01:52:59.477Z,99286.88
2019-01-21T01:55:29.836Z,99289.88
2019-01-21T01:58:00.972Z,99289.30
2019-01-21T02:00:30.455Z,99286.83
2019-01-21T02:02:59.674Z,99285.53
2019-01-21T02:05:28.837Z,99288.12
2019-01-21T02:07:58.009Z,99291.55
2019-01-21T02:10:27.205Z,99289.38
2019-01-21T02:12:56.300Z,99290.23
2019-01-21T02:15:25.453Z,99284.61
2019-01-21T02:17:54.594Z,99290.66
2019-01-21T02:20:24.079Z,99287.30
2019-01-21T02:22:58.536Z,99280.92
2019-01-21T02:25:44.374Z,99286.56
2019-01-21T02:28:27.793Z,99279.95
2019-01-21T02:31:30.465Z,99274.34
2019-01-21T02:34:18.040Z,99278.60
2019-01-21T02:37:28.633Z,99276.80
2019-01-21T02:40:34.330Z,99277.45
2019-01-21T02:43:52.985Z,99273.56
2019-01-21T02:46:37.898Z,99266.70
2019-01-21T02:49:46.680Z,99265.85
2019-01-21T02:52:56.680Z,99260.13
2019-01-21T02:56:01.214Z,99261.91
2019-01-21T02:59:20.316Z,99259.80
2019-01-21T03:02:25.298Z,99260.67
2019-01-21T03:05:54.198Z,99255.08
2019-01-21T03:08:53.941Z,99264.14
2019-01-21T03:12:01.236Z,99259.49
2019-01-21T03:14:57.900Z,99266.28
2019-01-21T03:18:08.240Z,99259.36
2019-01-21T03:21:20.353Z,99264.14
2019-01-21T03:24:14.302Z,99265.38
2019-01-21T03:27:21.090Z,99265.46
2019-01-21T03:30:31.963Z,99266.28
2019-01-21T03:33:26.999Z,99266.84
2019-01-21T03:36:24.984Z,99266.02
2019-01-21T03:39:35.925Z,99261.68
2019-01-21T03:42:22.693Z,99259.86
2019-01-21T03:45:30.598Z,99256.41
2019-01-21T03:48:39.486Z,99258.51
2019-01-21T03:52:17.655Z,99267.50
2019-01-21T03:54:51.774Z,99264.94
2019-01-21T03:57:55.786Z,99262.90
2019-01-21T04:00:59.687Z,99264.67
2019-01-21T04:04:08.933Z,99262.47
2019-01-21T04:07:07.866Z,99263.33
2019-01-21T04:10:14.858Z,99264.59
2019-01-21T04:13:13.659Z,99268.13
2019-01-21T04:16:12.371Z,99263.81
2019-01-21T04:19:13.890Z,99262.54
2019-01-21T04:22:09.197Z,99263.09
2019-01-21T04:25:13.104Z,99268.27
2019-01-21T04:28:21.473Z,99272.88
2019-01-21T04:31:23.496Z,99271.14
2019-01-21T04:34:21.644Z,99277.73
2019-01-21T04:37:20.568Z,99282.05
2019-01-21T04:40:22.096Z,99282.05
2019-01-21T04:43:34.148Z,99284.52
2019-01-21T04:46:55.515Z,99285.34
2019-01-21T04:50:10.612Z,99282.38
2019-01-21T04:52:59.106Z,99280.27
2019-01-21T04:56:06.391Z,99281.70
2019-01-21T04:59:16.791Z,99285.45
2019-01-21T05:02:19.820Z,99291.92
2019-01-21T05:05:23.050Z,99286.76
2019-01-21T05:08:20.584Z,99280.28
2019-01-21T05:11:40.233Z,99275.00
2019-01-21T05:14:45.447Z,99272.02
2019-01-21T05:17:57.272Z,99275.13
2019-01-21T05:21:19.672Z,99271.68
2019-01-21T05:24:29.461Z,99272.91
2019-01-21T05:27:30.784Z,99271.62
2019-01-21T05:30:47.407Z,99278.38
2019-01-21T05:33:51.770Z,99282.25
2019-01-21T05:37:02.172Z,99281.48
2019-01-21T05:39:59.798Z,99281.48
2019-01-21T05:43:28.255Z,99279.91
2019-01-21T05:46:53.047Z,99275.52
2019-01-21T05:50:17.554Z,99279.89
2019-01-21T05:53:14.305Z,99273.78
2019-01-21T05:56:21.274Z,99280.30
2019-01-21T05:59:20.873Z,99284.14
2019-01-21T06:02:54.147Z,99285.45
2019-01-21T06:05:42.320Z,99285.89
2019-01-21T06:09:13.665Z,99290.67
2019-01-21T06:12:20.832Z,99286.40
2019-01-21T06:15:39.961Z,99286.88
2019-01-21T06:18:35.218Z,99289.91
2019-01-21T06:21:45.363Z,99293.73
2019-01-21T06:24:39.421Z,99297.23
2019-01-21T06:27:45.076Z,99292.94
2019-01-21T06:30:56.582Z,99295.80
2019-01-21T06:34:01.345Z,99299.50
2019-01-21T06:36:44.716Z,99290.75
2019-01-21T06:39:58.700Z,99290.34
2019-01-21T06:42:45.359Z,99297.23
2019-01-21T06:46:14.151Z,99301.94
2019-01-21T06:49:19.169Z,99301.13
2019-01-21T06:52:38.252Z,99298.50
2019-01-21T06:55:53.093Z,99308.00
2019-01-21T06:59:13.028Z,99308.03
2019-01-21T07:01:53.936Z,99304.20
2019-01-21T07:04:50.330Z,99299.36
2019-01-21T07:08:03.860Z,99308.86
2019-01-21T07:11:04.310Z,99304.59
2019-01-21T07:14:14.788Z,99299.77
2019-01-21T07:17:12.411Z,99318.41
2019-01-21T07:20:01.195Z,99326.46
2019-01-21T07:23:12.556Z,99322.30
2019-01-21T07:26:13.756Z,99318.37
2019-01-21T07:29:05.019Z,99314.94
2019-01-21T07:32:06.085Z,99312.23
2019-01-21T07:35:06.591Z,99309.23
2019-01-21T07:38:13.312Z,99308.87
2019-01-21T07:41:22.490Z,99315.00
2019-01-21T07:44:28.711Z,99304.20
2019-01-21T07:47:33.317Z,99306.33
2019-01-21T07:50:45.914Z,99304.05
2019-01-21T07:54:01.154Z,99305.33
2019-01-21T07:57:06.162Z,99302.68
2019-01-21T08:00:31.752Z,99303.98
2019-01-21T08:03:24.178Z,99308.66
2019-01-21T08:06:06.364Z,99304.73
2019-01-21T08:09:10.373Z,99307.22
2019-01-21T08:12:02.111Z,99311.47
2019-01-21T08:15:02.418Z,99317.48
2019-01-21T08:18:14.372Z,99316.50
2019-01-21T08:21:03.284Z,99313.61
2019-01-21T08:23:48.119Z,99313.61
2019-01-21T08:26:57.399Z,99317.81
2019-01-21T08:29:59.446Z,99319.09
2019-01-21T08:32:47.826Z,99313.64
2019-01-21T08:35:57.874Z,99311.80
2019-01-21T08:38:43.295Z,99308.39
2019-01-21T08:41:46.767Z,99310.45
2019-01-21T08:44:36.143Z,99315.94
2019-01-21T08:47:21.044Z,99320.42
2019-01-21T08:50:07.367Z,99317.22
2019-01-21T08:53:11.170Z,99314.44
2019-01-21T08:56:30.379Z,99318.39
2019-01-21T08:59:15.780Z,99316.38
2019-01-21T09:02:22.159Z,99323.84
2019-01-21T09:05:32.853Z,99318.17
2019-01-21T09:08:27.731Z,99315.42
2019-01-21T09:11:06.549Z,99315.14
2019-01-21T09:14:35.244Z,99317.71
2019-01-21T09:17:36.290Z,99316.69
2019-01-21T09:20:51.847Z,99320.02
2019-01-21T09:23:46.204Z,99321.12
2019-01-21T09:26:39.303Z,99324.41
2019-01-21T09:29:47.211Z,99321.78
2019-01-21T09:33:06.402Z,99322.55
2019-01-21T09:36:25.496Z,99309.81
2019-01-21T09:39:30.666Z,99310.05
2019-01-21T09:42:43.561Z,99311.16
2019-01-21T09:45:54.999Z,99323.09
2019-01-21T09:48:22.462Z,99325.64
2019-01-21T09:50:52.675Z,99321.74
2019-01-21T09:53:21.804Z,99321.16
2019-01-21T09:55:52.934Z,99315.09
2019-01-21T09:58:24.900Z,99323.72
2019-01-21T10:00:54.637Z,99317.59
2019-01-21T10:03:24.583Z,99324.67
2019-01-21T10:05:58.481Z,99324.81
2019-01-21T10:08:50.895Z,99325.97
2019-01-21T10:12:04.910Z,99318.53
2019-01-21T10:15:20.021Z,99317.59
2019-01-21T10:18:29.609Z,99311.22
2019-01-21T10:21:23.050Z,99306.58
2019-01-21T10:24:18.600Z,99298.27
2019-01-21T10:27:41.503Z,99298.55
2019-01-21T10:30:47.864Z,99299.48
2019-01-21T10:33:56.458Z,99295.83
2019-01-21T10:36:56.189Z,99288.41
2019-01-21T10:39:58.995Z,99284.31
2019-01-21T10:42:53.243Z,99287.73
2019-01-21T10:45:44.867Z,99275.34
2019-01-21T10:48:55.139Z,99270.63
2019-01-21T10:52:20.749Z,99264.77
2019-01-21T10:55:08.695Z,99252.38
2019-01-21T10:58:10.284Z,99246.25
2019-01-21T11:01:24.967Z,99237.97
2019-01-21T11:04:17.249Z,99242.25
2019-01-21T11:07:29.423Z,99226.28
2019-01-21T11:10:23.642Z,99224.77
2019-01-21T11:13:21.811Z,99219.28
2019-01-21T11:16:19.835Z,99214.77
2019-01-21T11:19:31.692Z,99206.22
2019-01-21T11:22:13.379Z,99204.06
2019-01-21T11:25:28.446Z,99204.53
2019-01-21T11:28:25.403Z,99196.92
2019-01-21T11:31:16.279Z,99202.51
2019-01-21T11:34:32.793Z,99196.02
2019-01-21T11:37:34.531Z,99192.51
2019-01-21T11:40:51.315Z,99185.83
2019-01-21T11:43:44.521Z,99194.52
2019-01-21T11:46:34.776Z,99196.51
2019-01-21T11:49:34.929Z,99196.80
2019-01-21T11:52:47.100Z,99195.25
2019-01-21T11:55:29.041Z,99186.17
2019-01-21T11:58:45.447Z,99177.83
2019-01-21T12:02:14.047Z,99182.73
2019-01-21T12:05:01.994Z,99171.89
2019-01-21T12:08:13.649Z,99146.28
2019-01-21T12:11:32.016Z,99151.59
2019-01-21T12:14:26.316Z,99163.65
2019-01-21T12:17:38.886Z,99166.22
2019-01-21T12:20:37.795Z,99165.25
2019-01-21T12:23:50.756Z,99162.48
2019-01-21T12:27:01.407Z,99166.00
2019-01-21T12:30:08.996Z,99161.86
2019-01-21T12:33:20.258Z,99155.87
2019-01-21T12:35:59.722Z,99149.63
2019-01-21T12:39:22.045Z,99157.02
2019-01-21T12:42:24.907Z,99150.29
2019-01-21T12:45:27.182Z,99147.67
2019-01-21T12:48:18.716Z,99146.45
2019-01-21T12:51:32.469Z,99144.11
2019-01-21T12:55:10.198Z,99137.69
2019-01-21T12:58:18.900Z,99130.94
2019-01-21T13:01:13.480Z,99118.50
2019-01-21T13:04:45.225Z,99119.32
2019-01-21T13:07:40.851Z,99112.55
2019-01-21T13:10:46.584Z,99119.38
2019-01-21T13:13:55.818Z,99117.16
2019-01-21T13:16:47.141Z,99112.61
2019-01-21T13:19:53.738Z,99102.03
2019-01-21T13:23:03.362Z,99110.67
2019-01-21T13:26:22.111Z,99104.11
2019-01-21T13:29:25.705Z,99093.81
2019-01-21T13:32:26.881Z,99088.89
2019-01-21T13:35:24.243Z,99086.48
2019-01-21T13:38:39.273Z,99075.92
2019-01-21T13:42:01.858Z,99067.36
2019-01-21T13:45:36.490Z,99075.22
2019-01-21T13:48:41.794Z,99076.41
2019-01-21T13:51:53.736Z,99078.80
2019-01-21T13:54:52.327Z,99066.02
2019-01-21T13:57:54.955Z,99058.81
2019-01-21T14:00:48.149Z,99052.81
2019-01-21T14:04:01.033Z,99051.03
2019-01-21T14:07:08.127Z,99041.76
2019-01-21T14:10:00.570Z,99041.28
2019-01-21T14:13:16.768Z,99033.98
2019-01-21T14:16:23.501Z,99027.45
2019-01-21T14:19:12.668Z,99027.03
2019-01-21T14:22:42.174Z,99016.03
2019-01-21T14:26:04.165Z,99016.30
2019-01-21T14:29:13.915Z,99018.00
2019-01-21T14:32:24.354Z,99024.75
2019-01-21T14:35:05.574Z,99018.19
2019-01-21T14:38:05.606Z,99022.45
2019-01-21T14:40:52.822Z,99023.80
2019-01-21T14:44:04.121Z,99019.52
2019-01-21T14:46:46.750Z,99015.50
2019-01-21T14:49:29.378Z,99017.05
2019-01-21T14:52:33.097Z,99012.15
2019-01-21T14:55:32.417Z,99010.60
2019-01-21T14:58:39.203Z,99009.97
2019-01-21T15:01:43.950Z,99015.04
2019-01-21T15:04:58.801Z,99010.14
2019-01-21T15:07:43.833Z,99013.39
2019-01-21T15:10:26.659Z,99006.92
2019-01-21T15:13:08.269Z,99016.00
2019-01-21T15:16:15.266Z,99013.90
2019-01-21T15:19:08.573Z,99014.64
2019-01-21T15:22:17.923Z,99021.23
2019-01-21T15:25:20.368Z,99016.69
2019-01-21T15:28:38.660Z,99021.31
2019-01-21T15:31:39.425Z,99020.17
2019-01-21T15:34:30.009Z,99017.50
2019-01-21T15:37:28.829Z,99013.05
2019-01-21T15:40:29.316Z,99017.43
2019-01-21T15:43:12.565Z,99016.67
2019-01-21T15:46:05.171Z,99019.88
2019-01-21T15:49:02.433Z,99020.58
2019-01-21T15:52:14.568Z,99016.99
2019-01-21T15:55:15.798Z,99018.02
2019-01-21T15:58:19.071Z,99019.24
2019-01-21T16:01:19.370Z,99014.14
2019-01-21T16:04:02.230Z,99015.02
2019-01-21T16:07:30.770Z,99016.27
2019-01-21T16:10:47.099Z,99013.48
2019-01-21T16:13:38.353Z,99008.46
2019-01-21T16:16:44.355Z,99006.80
2019-01-21T16:19:36.010Z,99002.22
2019-01-21T16:22:41.236Z,99004.69
2019-01-21T16:25:49.744Z,99000.42
2019-01-21T16:28:46.953Z,98983.58
2019-01-21T16:31:27.256Z,98992.19
2019-01-21T16:34:22.907Z,98986.80
2019-01-21T16:37:45.175Z,98979.80
2019-01-21T16:40:35.900Z,98984.36
2019-01-21T16:43:05.204Z,98979.84
2019-01-21T16:45:34.313Z,98972.39
2019-01-21T16:48:03.458Z,98972.80
2019-01-21T16:50:32.557Z,98973.95
2019-01-21T16:53:02.089Z,98983.12
2019-01-21T16:55:31.391Z,98979.17
2019-01-21T16:58:00.492Z,98978.27
2019-01-21T17:00:29.611Z,98971.94
2019-01-21T17:02:58.722Z,98965.96
2019-01-21T17:05:27.862Z,98953.28
2019-01-21T17:07:57.149Z,98948.48
2019-01-21T17:10:26.390Z,98945.84
2019-01-21T17:12:55.719Z,98944.48
2019-01-21T17:15:24.886Z,98945.39
2019-01-21T17:17:54.014Z,98946.70
2019-01-21T17:20:23.426Z,98944.13
2019-01-21T17:22:52.562Z,98945.15
2019-01-21T17:25:29.578Z,98942.75
2019-01-21T17:27:58.740Z,98942.92
2019-01-21T17:30:27.896Z,98945.23
2019-01-21T17:32:57.085Z,98945.73
2019-01-21T17:35:26.221Z,98940.65
2019-01-21T17:37:55.322Z,98946.83
2019-01-21T17:40:24.467Z,98942.59
2019-01-21T17:42:53.700Z,98943.92
2019-01-21T17:45:22.913Z,98947.30
2019-01-21T17:47:52.063Z,98939.50
2019-01-21T17:50:21.273Z,98937.58
2019-01-21T17:52:50.434Z,98939.08
2019-01-21T17:55:19.778Z,98941.00
2019-01-21T17:57:48.883Z,98947.63
2019-01-21T18:00:22.934Z,98953.44
2019-01-21T18:02:52.030Z,98959.98
2019-01-21T18:05:21.792Z,98966.09
2019-01-21T18:07:51.159Z,98967.81
2019-01-21T18:10:21.678Z,98976.08
2019-01-21T18:13:03.355Z,98971.69
2019-01-21T18:15:32.492Z,98971.65
2019-01-21T18:18:01.721Z,98972.94
2019-01-21T18:20:30.845Z,98974.08
2019-01-21T18:23:00.140Z,98973.11
2019-01-21T18:25:29.382Z,98981.20
2019-01-21T18:27:58.532Z,98980.09
2019-01-21T18:30:28.424Z,98974.21
2019-01-21T18:32:57.576Z,98971.27
2019-01-21T18:35:26.878Z,98970.21
2019-01-21T18:37:56.840Z,98971.10
2019-01-21T18:40:26.133Z,98967.27
2019-01-21T18:42:55.591Z,98970.01
2019-01-21T18:45:26.934Z,98969.98
2019-01-21T18:47:56.083Z,98965.09
2019-01-21T18:50:25.517Z,98966.56
2019-01-21T18:52:54.808Z,98960.67
2019-01-21T18:55:23.910Z,98959.91
2019-01-21T18:57:56.059Z,98960.77
2019-01-21T19:00:25.911Z,98958.37
2019-01-21T19:02:55.157Z,98948.92
2019-01-21T19:05:24.620Z,98942.88
2019-01-21T19:07:53.845Z,98946.33
2019-01-21T19:10:23.019Z,98944.69
2019-01-21T19:12:52.525Z,98945.02
2019-01-21T19:15:30.179Z,98940.55
2019-01-21T19:17:59.400Z,98936.36
2019-01-21T19:20:28.655Z,98933.01
2019-01-21T19:22:58.016Z,98937.00
2019-01-21T19:25:27.258Z,98941.30
2019-01-21T19:27:56.393Z,98933.17
2019-01-21T19:30:27.016Z,98938.39
2019-01-21T19:32:56.388Z,98938.27
2019-01-21T19:35:31.454Z,98942.19
2019-01-21T19:38:00.732Z,98938.64
2019-01-21T19:40:29.957Z,98940.17
2019-01-21T19:42:59.169Z,98944.50
2019-01-21T19:45:28.489Z,98941.97
2019-01-21T19:47:57.645Z,98935.45
2019-01-21T19:50:26.908Z,98934.60
2019-01-21T19:52:56.187Z,98925.52
2019-01-21T19:55:28.564Z,98927.70
2019-01-21T19:57:57.743Z,98923.00
2019-01-21T20:00:28.045Z,98925.52
2019-01-21T20:02:57.199Z,98927.39
2019-01-21T20:05:26.355Z,98931.28
2019-01-21T20:07:55.507Z,98923.84
2019-01-21T20:10:24.747Z,98917.95
2019-01-21T20:12:54.028Z,98919.73
2019-01-21T20:15:23.233Z,98918.02
2019-01-21T20:17:52.666Z,98920.05
2019-01-21T20:20:24.490Z,98916.19
2019-01-21T20:22:57.631Z,98918.84
2019-01-21T20:25:24.777Z,98913.95
2019-01-21T20:27:54.595Z,98904.88
2019-01-21T20:30:24.279Z,98909.47
2019-01-21T20:32:54.255Z,98915.06
2019-01-21T20:35:23.951Z,98918.84
2019-01-21T20:37:53.880Z,98913.59
2019-01-21T20:40:25.415Z,98913.83
2019-01-21T20:42:55.290Z,98912.36
2019-01-21T20:45:24.540Z,98909.44
2019-01-21T20:47:54.198Z,98906.84
2019-01-21T20:50:28.634Z,98898.69
2019-01-21T20:52:57.771Z,98897.55
2019-01-21T20:55:27.644Z,98891.20
2019-01-21T20:57:56.777Z,98888.05
2019-01-21T21:00:27.544Z,98882.87
2019-01-21T21:02:57.523Z,98884.14
2019-01-21T21:05:26.957Z,98878.51
2019-01-21T21:07:58.466Z,98874.20
2019-01-21T21:10:36.875Z,98869.05
2019-01-21T21:13:07.636Z,98880.72
2019-01-21T21:15:37.715Z,98865.84
2019-01-21T21:18:06.831Z,98868.82
2019-01-21T21:20:36.090Z,98861.55
2019-01-21T21:23:06.586Z,98867.22
2019-01-21T21:25:35.840Z,98862.84
2019-01-21T21:28:05.297Z,98858.45
2019-01-21T21:30:34.687Z,98860.81
2019-01-21T21:33:04.104Z,98863.73
2019-01-21T21:35:33.206Z,98855.27
2019-01-21T21:38:02.355Z,98857.27
2019-01-21T21:40:31.725Z,98851.80
2019-01-21T21:43:00.900Z,98856.01
2019-01-21T21:45:30.066Z,98858.66
2019-01-21T21:48:01.198Z,98852.86
2019-01-21T21:50:32.285Z,98856.57
2019-01-21T21:53:01.704Z,98849.94
2019-01-21T21:55:31.627Z,98849.23
2019-01-21T21:58:00.988Z,98847.27
2019-01-21T22:00:30.379Z,98855.59
2019-01-21T22:02:59.584Z,98851.09
2019-01-21T22:05:29.083Z,98845.97
2019-01-21T22:07:58.222Z,98849.91
2019-01-21T22:10:28.993Z,98850.65
2019-01-21T22:12:58.252Z,98846.77
2019-01-21T22:15:27.805Z,98848.94
2019-01-21T22:17:57.113Z,98844.73
2019-01-21T22:20:26.400Z,98840.40
2019-01-21T22:22:55.765Z,98837.21
2019-01-21T22:25:25.035Z,98843.02
2019-01-21T22:27:54.219Z,98838.73
2019-01-21T22:30:26.772Z,98841.09
2019-01-21T22:32:55.916Z,98834.89
2019-01-21T22:35:25.416Z,98832.86
2019-01-21T22:37:54.671Z,98829.09
2019-01-21T22:40:24.369Z,98826.32
2019-01-21T22:42:53.641Z,98828.45
2019-01-21T22:45:23.150Z,98825.47
2019-01-21T22:47:52.343Z,98821.97
2019-01-21T22:50:21.811Z,98820.73
2019-01-21T22:52:50.894Z,98824.53
2019-01-21T22:55:20.068Z,98825.00
2019-01-21T22:57:49.211Z,98823.66
2019-01-21T23:00:54.793Z,98828.13
2019-01-21T23:03:24.728Z,98824.78
2019-01-21T23:05:53.846Z,98819.22
2019-01-21T23:08:23.533Z,98816.22
2019-01-21T23:10:52.679Z,98821.81
2019-01-21T23:13:21.795Z,98821.81
2019-01-21T23:15:50.965Z,98810.90
2019-01-21T23:18:20.132Z,98814.42
2019-01-21T23:20:49.729Z,98808.65
2019-01-21T23:23:18.871Z,98806.65
2019-01-21T23:25:47.989Z,98800.21
2019-01-21T23:28:17.111Z,98797.91
2019-01-21T23:30:46.614Z,98794.05
2019-01-21T23:33:15.763Z,98786.30
2019-01-21T23:35:45.335Z,98781.06
2019-01-21T23:38:14.458Z,98790.72
2019-01-21T23:40:43.641Z,98785.92
2019-01-21T23:43:12.756Z,98781.84
2019-01-21T23:45:41.840Z,98780.87
2019-01-21T23:48:11.160Z,98779.70
2019-01-21T23:50:40.293Z,98778.07
2019-01-21T23:53:09.429Z,98773.25
2019-01-21T23:55:38.522Z,98768.42
2019-01-21T23:58:07.667Z,98765.86
